2306 UTC 02 July 2015 found at http://aviationweather.gov/adds/metars/
 
METAR text: KAFF 022258Z AUTO 20006KT 10SM FEW190 23/12 A3026 RMK AO2 SLP167 T02260120
Conditions at: KAFF (USAF ACADEMY/COS, CO, US) observed 2258 UTC 02 July 2015
Temperature: 22.6°C (73°F)
Dewpoint: 12.0°C (54°F) [RH = 51%]
Pressure (altimeter): 30.26 inches Hg (1024.8 mb[Sea-level pressure: 1016.7 mb]
Winds: from the SSW (200 degrees) at 7 MPH (6 knots; 3.1 m/s)
Visibility: 10 or more miles (16+ km)
Ceiling: at least 12,000 feet AGL
Clouds: few clouds at 19000 feet AGL
Weather: automated observation with no human augmentation;
there may or may not be significant weather present at this time

METAR text: KAFF 022158Z AUTO 25007KT 10SM FEW190 23/12 A3026 RMK AO2 SLP162 T02300115
Conditions at: KAFF (USAF ACADEMY/COS, CO, US) observed 2158 UTC 02 July 2015
Temperature: 23.0°C (73°F)
Dewpoint: 11.5°C (53°F) [RH = 48%]
Pressure (altimeter): 30.26 inches Hg (1024.8 mb[Sea-level pressure: 1016.2 mb]
Winds: from the WSW (250 degrees) at 8 MPH (7 knots; 3.6 m/s)
Visibility: 10 or more miles (16+ km)
Ceiling: at least 12,000 feet AGL
Clouds: few clouds at 19000 feet AGL
Weather: automated observation with no human augmentation;
there may or may not be significant weather present at this time

METAR text: KAFF 022058Z AUTO 29003KT 10SM SCT190 SCT210 22/11 A3027 RMK AO2 RAE01DZB01E05 SLP166 P0000 60000 T02210110 58004
Conditions at: KAFF (USAF ACADEMY/COS, CO, US) observed 2058 UTC 02 July 2015
Temperature: 22.1°C (72°F)
Dewpoint: 11.0°C (52°F) [RH = 49%]
Pressure (altimeter): 30.27 inches Hg (1025.1 mb[Sea-level pressure: 1016.6 mb]
Winds: from the WNW (290 degrees) at 3 MPH (3 knots; 1.6 m/s)
Visibility: 10 or more miles (16+ km)
Ceiling: at least 12,000 feet AGL
Clouds: scattered clouds at 19000 feet AGL
scattered clouds at 21000 feet AGL
Weather: automated observation with no human augmentation;
there may or may not be significant weather present at this time

METAR text: KAFF 022005Z AUTO 32006KT 10SM FEW190 21/11 A3028 RMK AO2 RAE01DZB01E05
Conditions at: KAFF (USAF ACADEMY/COS, CO, US) observed 2005 UTC 02 July 2015
Temperature: 21.0°C (70°F)
Dewpoint: 11.0°C (52°F) [RH = 53%]
Pressure (altimeter): 30.28 inches Hg (1025.5 mb)
Winds: from the NW (320 degrees) at 7 MPH (6 knots; 3.1 m/s)
Visibility: 10 or more miles (16+ km)
Ceiling: at least 12,000 feet AGL
Clouds: few clouds at 19000 feet AGL
Weather: automated observation with no human augmentation;
there may or may not be significant weather present at this time

METAR text: KAFF 021958Z AUTO 32007KT 10SM -RA FEW190 21/11 A3029 RMK AO2 RAB21E22DZB22E30RAB30E31DZB50E52RAB52 SLP178 P0000 T02140112
Conditions at: KAFF (USAF ACADEMY/COS, CO, US) observed 1958 UTC 02 July 2015
Temperature: 21.4°C (71°F)
Dewpoint: 11.2°C (52°F) [RH = 52%]
Pressure (altimeter): 30.29 inches Hg (1025.8 mb[Sea-level pressure: 1017.8 mb]
Winds: from the NW (320 degrees) at 8 MPH (7 knots; 3.6 m/s)
Visibility: 10 or more miles (16+ km)
Ceiling: at least 12,000 feet AGL
Clouds: few clouds at 19000 feet AGL
Weather: -RA  (light rain)

METAR text: KAFF 021950Z AUTO 04003KT 10SM -DZ FEW200 21/11 A3028 RMK AO2 RAB21E22DZB22E30RAB30E31DZB50
Conditions at: KAFF (USAF ACADEMY/COS, CO, US) observed 1950 UTC 02 July 2015
Temperature: 21.0°C (70°F)
Dewpoint: 11.0°C (52°F) [RH = 53%]
Pressure (altimeter): 30.28 inches Hg (1025.5 mb)
Winds: from the NE (40 degrees) at 3 MPH (3 knots; 1.6 m/s)
Visibility: 10 or more miles (16+ km)
Ceiling: at least 12,000 feet AGL
Clouds: few clouds at 20000 feet AGL
Weather: -DZ  (light drizzle)

METAR text: KAFF 021931Z AUTO 36005KT 10SM FEW085 21/11 A3028 RMK AO2 RAB21E22DZB22E30RAB30E31
Conditions at: KAFF (USAF ACADEMY/COS, CO, US) observed 1931 UTC 02 July 2015
Temperature: 21.0°C (70°F)
Dewpoint: 11.0°C (52°F) [RH = 53%]
Pressure (altimeter): 30.28 inches Hg (1025.5 mb)
Winds: from the N (360 degrees) at 6 MPH (5 knots; 2.6 m/s)
Visibility: 10 or more miles (16+ km)
Ceiling: at least 12,000 feet AGL
Clouds: few clouds at 8500 feet AGL
Weather: automated observation with no human augmentation;
there may or may not be significant weather present at this time

METAR text: KAFF 021921Z AUTO 36009KT 10SM -RA FEW085 22/11 A3028 RMK AO2 RAB21
Conditions at: KAFF (USAF ACADEMY/COS, CO, US) observed 1921 UTC 02 July 2015
Temperature: 22.0°C (72°F)
Dewpoint: 11.0°C (52°F) [RH = 50%]
Pressure (altimeter): 30.28 inches Hg (1025.5 mb)
Winds: from the N (360 degrees) at 10 MPH (9 knots; 4.7 m/s)
Visibility: 10 or more miles (16+ km)
Ceiling: at least 12,000 feet AGL
Clouds: few clouds at 8500 feet AGL
Weather: -RA  (light rain)

METAR text: KAFF 021858Z AUTO 36003KT 10SM FEW090 SCT140 BKN200 22/12 A3029 RMK AO2 SLP178 T02200116
Conditions at: KAFF (USAF ACADEMY/COS, CO, US) observed 1858 UTC 02 July 2015
Temperature: 22.0°C (72°F)
Dewpoint: 11.6°C (53°F) [RH = 52%]
Pressure (altimeter): 30.29 inches Hg (1025.8 mb[Sea-level pressure: 1017.8 mb]
Winds: from the N (360 degrees) at 3 MPH (3 knots; 1.6 m/s)
Visibility: 10 or more miles (16+ km)
Ceiling: 20000 feet AGL
Clouds: few clouds at 9000 feet AGL
scattered clouds at 14000 feet AGL
broken clouds at 20000 feet AGL
Weather: automated observation with no human augmentation;
there may or may not be significant weather present at this time

METAR text: KAFF 021758Z AUTO 18003KT 10SM FEW130 20/13 A3029 RMK AO2 SLP178 60000 T02000128 10200 20123 58010
Conditions at: KAFF (USAF ACADEMY/COS, CO, US) observed 1758 UTC 02 July 2015
Temperature: 20.0°C (68°F)
Dewpoint: 12.8°C (55°F) [RH = 63%]
Pressure (altimeter): 30.29 inches Hg (1025.8 mb[Sea-level pressure: 1017.8 mb]
Winds: from the S (180 degrees) at 3 MPH (3 knots; 1.6 m/s)
Visibility: 10 or more miles (16+ km)
Ceiling: at least 12,000 feet AGL
Clouds: few clouds at 13000 feet AGL
Weather: automated observation with no human augmentation;
there may or may not be significant weather present at this time

METAR text: KAFF 021658Z AUTO 34008KT 10SM CLR 17/12 A3031 RMK AO2 SLP195 T01730124
Conditions at: KAFF (USAF ACADEMY/COS, CO, US) observed 1658 UTC 02 July 2015
Temperature: 17.3°C (63°F)
Dewpoint: 12.4°C (54°F) [RH = 73%]
Pressure (altimeter): 30.31 inches Hg (1026.5 mb[Sea-level pressure: 1019.5 mb]
Winds: from the NNW (340 degrees) at 9 MPH (8 knots; 4.2 m/s)
Visibility: 10 or more miles (16+ km)
Ceiling: at least 12,000 feet AGL
Clouds: sky clear below 12,000 feet AGL
Weather: automated observation with no human augmentation;
there may or may not be significant weather present at this time

METAR text: KAFF 021628Z 36011KT 10SM FEW015 SCT035 BKN200 16/12 A3031 RMK AO2A
Conditions at: KAFF (USAF ACADEMY/COS, CO, US) observed 1628 UTC 02 July 2015
Temperature: 16.0°C (61°F)
Dewpoint: 12.0°C (54°F) [RH = 77%]
Pressure (altimeter): 30.31 inches Hg (1026.5 mb)
Winds: from the N (360 degrees) at 13 MPH (11 knots; 5.7 m/s)
Visibility: 10 or more miles (16+ km)
Ceiling: 20000 feet AGL
Clouds: few clouds at 1500 feet AGL
scattered clouds at 3500 feet AGL
broken clouds at 20000 feet AGL
Weather: no significant weather observed at this time

METAR text: KAFF 021618Z 36012G18KT 10SM SCT015 BKN035 16/12 A3032 RMK AO2A
Conditions at: KAFF (USAF ACADEMY/COS, CO, US) observed 1618 UTC 02 July 2015
Temperature: 16.0°C (61°F)
Dewpoint: 12.0°C (54°F) [RH = 77%]
Pressure (altimeter): 30.32 inches Hg (1026.8 mb)
Winds: from the N (360 degrees) at 14 MPH (12 knots; 6.2 m/sgusting to 21 MPH (18 knots; 9.4 m/s)
Visibility: 10 or more miles (16+ km)
Ceiling: 3500 feet AGL
Clouds: scattered clouds at 1500 feet AGL
broken clouds at 3500 feet AGL
Weather: no significant weather observed at this time

METAR text: KAFF 021558Z 01013KT 10SM SCT012 BKN015 BKN030 15/12 A3033 RMK AO2A SLP202 T01480119
Conditions at: KAFF (USAF ACADEMY/COS, CO, US) observed 1558 UTC 02 July 2015
Temperature: 14.8°C (59°F)
Dewpoint: 11.9°C (53°F) [RH = 83%]
Pressure (altimeter): 30.33 inches Hg (1027.2 mb[Sea-level pressure: 1020.2 mb]
Winds: from the N (10 degrees) at 15 MPH (13 knots; 6.8 m/s)
Visibility: 10 or more miles (16+ km)
Ceiling: 1500 feet AGL
Clouds: scattered clouds at 1200 feet AGL
broken clouds at 1500 feet AGL
broken clouds at 3000 feet AGL
Weather: no significant weather observed at this time

METAR text: KAFF 021458Z 01014KT 10SM FEW008 BKN014 OVC017 14/13 A3033 RMK AO2A RAE20 SLP207 P0000 60000 T01390126 52028
Conditions at: KAFF (USAF ACADEMY/COS, CO, US) observed 1458 UTC 02 July 2015
Temperature: 13.9°C (57°F)
Dewpoint: 12.6°C (55°F) [RH = 92%]
Pressure (altimeter): 30.33 inches Hg (1027.2 mb[Sea-level pressure: 1020.7 mb]
Winds: from the N (10 degrees) at 16 MPH (14 knots; 7.3 m/s)
Visibility: 10 or more miles (16+ km)
Ceiling: 1400 feet AGL
Clouds: few clouds at 800 feet AGL
broken clouds at 1400 feet AGL
overcast cloud deck at 1700 feet AGL
Weather: no significant weather observed at this time

METAR text: KAFF 021420Z 01017G22KT 10SM BKN008 OVC012 14/14 A3031 RMK AO2A RAE20 CIG 006V010
Conditions at: KAFF (USAF ACADEMY/COS, CO, US) observed 1420 UTC 02 July 2015
Temperature: 14.0°C (57°F)
Dewpoint: 14.0°C (57°F) [RH = 100%]
Pressure (altimeter): 30.31 inches Hg (1026.5 mb)
Winds: from the N (10 degrees) at 20 MPH (17 knots; 8.8 m/sgusting to 25 MPH (22 knots; 11.4 m/s)
Visibility: 10 or more miles (16+ km)
Ceiling: 800 feet AGL
Clouds: broken clouds at 800 feet AGL
overcast cloud deck at 1200 feet AGL
Weather: no significant weather observed at this time

METAR text: KAFF 021358Z 36016G22KT 8SM -RA OVC006 14/14 A3030 RMK AO2A PK WND 34028/1259 DZB45E50RAB50 OVC V BKN SLP192 P0000 T01440142
Conditions at: KAFF (USAF ACADEMY/COS, CO, US) observed 1358 UTC 02 July 2015
Temperature: 14.4°C (58°F)
Dewpoint: 14.2°C (58°F) [RH = 99%]
Pressure (altimeter): 30.30 inches Hg (1026.2 mb[Sea-level pressure: 1019.2 mb]
Winds: from the N (360 degrees) at 18 MPH (16 knots; 8.3 m/sgusting to 25 MPH (22 knots; 11.4 m/s)
Visibility: 8 miles (13 km)
Ceiling: 600 feet AGL
Clouds: overcast cloud deck at 600 feet AGL
Weather: -RA  (light rain)

METAR text: KAFF 021355Z 36016G22KT 8SM -RA OVC006 14/14 A3030 RMK AO2A DZB45E50RAB50 CIG 006V008 OVC V BKN
Conditions at: KAFF (USAF ACADEMY/COS, CO, US) observed 1355 UTC 02 July 2015
Temperature: 14.0°C (57°F)
Dewpoint: 14.0°C (57°F) [RH = 100%]
Pressure (altimeter): 30.30 inches Hg (1026.2 mb)
Winds: from the N (360 degrees) at 18 MPH (16 knots; 8.3 m/sgusting to 25 MPH (22 knots; 11.4 m/s)
Visibility: 8 miles (13 km)
Ceiling: 600 feet AGL
Clouds: overcast cloud deck at 600 feet AGL
Weather: -RA  (light rain)

METAR text: KAFF 021345Z 34017G23KT 10SM -DZ OVC008 15/14 A3030 RMK AO2A DZB45
Conditions at: KAFF (USAF ACADEMY/COS, CO, US) observed 1345 UTC 02 July 2015
Temperature: 15.0°C (59°F)
Dewpoint: 14.0°C (57°F) [RH = 94%]
Pressure (altimeter): 30.30 inches Hg (1026.2 mb)
Winds: from the NNW (340 degrees) at 20 MPH (17 knots; 8.8 m/sgusting to 26 MPH (23 knots; 12.0 m/s)
Visibility: 10 or more miles (16+ km)
Ceiling: 800 feet AGL
Clouds: overcast cloud deck at 800 feet AGL
Weather: -DZ  (light drizzle)

METAR text: KAFF 021308Z 35014G22KT 330V030 10SM OVC009 15/14 A3027 RMK AO2A
Conditions at: KAFF (USAF ACADEMY/COS, CO, US) observed 1308 UTC 02 July 2015
Temperature: 15.0°C (59°F)
Dewpoint: 14.0°C (57°F) [RH = 94%]
Pressure (altimeter): 30.27 inches Hg (1025.1 mb)
Winds: from the N (350 degrees) at 16 MPH (14 knots; 7.3 m/sgusting to 25 MPH (22 knots; 11.4 m/s)
Visibility: 10 or more miles (16+ km)
Ceiling: 900 feet AGL
Clouds: overcast cloud deck at 900 feet AGL
Weather: no significant weather observed at this time

METAR text: KAFF 021258Z 34019G32KT 10SM OVC011 15/14 A3027 RMK AO2A PK WND 34036/37 OVC V BKN SLP181 T01520143
Conditions at: KAFF (USAF ACADEMY/COS, CO, US) observed 1258 UTC 02 July 2015
Temperature: 15.2°C (59°F)
Dewpoint: 14.3°C (58°F) [RH = 94%]
Pressure (altimeter): 30.27 inches Hg (1025.1 mb[Sea-level pressure: 1018.1 mb]
Winds: from the NNW (340 degrees) at 22 MPH (19 knots; 9.9 m/sgusting to 37 MPH (32 knots; 16.6 m/s)
Visibility: 10 or more miles (16+ km)
Ceiling: 1100 feet AGL
Clouds: overcast cloud deck at 1100 feet AGL
Weather: no significant weather observed at this time

METAR text: KAFF 021243Z 34024G34KT 10SM BKN014 15/14 A3026 RMK AO2A
Conditions at: KAFF (USAF ACADEMY/COS, CO, US) observed 1243 UTC 02 July 2015
Temperature: 15.0°C (59°F)
Dewpoint: 14.0°C (57°F) [RH = 94%]
Pressure (altimeter): 30.26 inches Hg (1024.8 mb)
Winds: from the NNW (340 degrees) at 28 MPH (24 knots; 12.5 m/sgusting to 39 MPH (34 knots; 17.7 m/s)
Visibility: 10 or more miles (16+ km)
Ceiling: 1400 feet AGL
Clouds: broken clouds at 1400 feet AGL
Weather: no significant weather observed at this time

METAR text: KAFF 021158Z AUTO 36012KT 10SM CLR 12/12 A3022 RMK AO2 SLP169 60001 70052 T01230123 10150 20121
Conditions at: KAFF (USAF ACADEMY/COS, CO, US) observed 1158 UTC 02 July 2015
Temperature: 12.3°C (54°F)
Dewpoint: 12.3°C (54°F) [RH = 100%]
Pressure (altimeter): 30.22 inches Hg (1023.5 mb[Sea-level pressure: 1016.9 mb]
Winds: from the N (360 degrees) at 14 MPH (12 knots; 6.2 m/s)
Visibility: 10 or more miles (16+ km)
Ceiling: at least 12,000 feet AGL
Clouds: sky clear below 12,000 feet AGL
Weather: automated observation with no human augmentation;
there may or may not be significant weather present at this time

METAR text: KAFF 021058Z AUTO 34004KT 10SM CLR 12/12 A3020 RMK AO2 SLP162 P0001 T01230121
Conditions at: KAFF (USAF ACADEMY/COS, CO, US) observed 1058 UTC 02 July 2015
Temperature: 12.3°C (54°F)
Dewpoint: 12.1°C (54°F) [RH = 99%]
Pressure (altimeter): 30.20 inches Hg (1022.8 mb[Sea-level pressure: 1016.2 mb]
Winds: from the NNW (340 degrees) at 5 MPH (4 knots; 2.1 m/s)
Visibility: 10 or more miles (16+ km)
Ceiling: at least 12,000 feet AGL
Clouds: sky clear below 12,000 feet AGL
Weather: automated observation with no human augmentation;
there may or may not be significant weather present at this time

METAR text: KAFF 020958Z AUTO 00000KT 10SM SCT140 14/13 A3020 RMK AO2 SLP151 T01350134
Conditions at: KAFF (USAF ACADEMY/COS, CO, US) observed 0958 UTC 02 July 2015
Temperature: 13.5°C (56°F)
Dewpoint: 13.4°C (56°F) [RH = 99%]
Pressure (altimeter): 30.20 inches Hg (1022.8 mb[Sea-level pressure: 1015.1 mb]
Winds: calm
Visibility: 10 or more miles (16+ km)
Ceiling: at least 12,000 feet AGL
Clouds: scattered clouds at 14000 feet AGL
Weather: automated observation with no human augmentation;
there may or may not be significant weather present at this time

METAR text: KAFF 020858Z AUTO 00000KT 10SM CLR 15/15 A3020 RMK AO2 SLPNO T01470145 57018
Conditions at: KAFF (USAF ACADEMY/COS, CO, US) observed 0858 UTC 02 July 2015
Temperature: 14.7°C (58°F)
Dewpoint: 14.5°C (58°F) [RH = 99%]
Pressure (altimeter): 30.20 inches Hg (1022.8 mb)
Winds: calm
Visibility: 10 or more miles (16+ km)
Ceiling: at least 12,000 feet AGL
Clouds: sky clear below 12,000 feet AGL
Weather: automated observation with no human augmentation;
there may or may not be significant weather present at this time

METAR text: KAFF 020758Z AUTO 00000KT 10SM FEW140 15/15 A3021 RMK AO2 SLPNO T01470147
Conditions at: KAFF (USAF ACADEMY/COS, CO, US) observed 0758 UTC 02 July 2015
Temperature: 14.7°C (58°F)
Dewpoint: 14.7°C (58°F) [RH = 100%]
Pressure (altimeter): 30.21 inches Hg (1023.1 mb)
Winds: calm
Visibility: 10 or more miles (16+ km)
Ceiling: at least 12,000 feet AGL
Clouds: few clouds at 14000 feet AGL
Weather: automated observation with no human augmentation;
there may or may not be significant weather present at this time

METAR text: KAFF 020658Z AUTO 00000KT 10SM CLR 14/14 A3025 RMK AO2 SLP150 T01420142 402900142
Conditions at: KAFF (USAF ACADEMY/COS, CO, US) observed 0658 UTC 02 July 2015
Temperature: 14.2°C (58°F)
Dewpoint: 14.2°C (58°F) [RH = 100%]
Pressure (altimeter): 30.25 inches Hg (1024.5 mb[Sea-level pressure: 1015.0 mb]
Winds: calm
Visibility: 10 or more miles (16+ km)
Ceiling: at least 12,000 feet AGL
Clouds: sky clear below 12,000 feet AGL
Weather: automated observation with no human augmentation;
there may or may not be significant weather present at this time

METAR text: KAFF 020558Z AUTO VRB03KT 10SM CLR 15/15 A3026 RMK AO2 SLP151 60004 T01460146 10182 20144 50000
Conditions at: KAFF (USAF ACADEMY/COS, CO, US) observed 0558 UTC 02 July 2015
Temperature: 14.6°C (58°F)
Dewpoint: 14.6°C (58°F) [RH = 100%]
Pressure (altimeter): 30.26 inches Hg (1024.8 mb[Sea-level pressure: 1015.1 mb]
Winds: variable direction winds at 3 MPH (3 knots; 1.6 m/s)
Visibility: 10 or more miles (16+ km)
Ceiling: at least 12,000 feet AGL
Clouds: sky clear below 12,000 feet AGL
Weather: automated observation with no human augmentation;
there may or may not be significant weather present at this time

METAR text: KAFF 020458Z AUTO 34002KT 10SM FEW100 15/15 A3028 RMK AO2 SLP161 T01530151
Conditions at: KAFF (USAF ACADEMY/COS, CO, US) observed 0458 UTC 02 July 2015
Temperature: 15.3°C (60°F)
Dewpoint: 15.1°C (59°F) [RH = 99%]
Pressure (altimeter): 30.28 inches Hg (1025.5 mb[Sea-level pressure: 1016.1 mb]
Winds: from the NNW (340 degrees) at 2 MPH (2 knots; 1.0 m/s)
Visibility: 10 or more miles (16+ km)
Ceiling: at least 12,000 feet AGL
Clouds: few clouds at 10000 feet AGL
Weather: automated observation with no human augmentation;
there may or may not be significant weather present at this time

METAR text: KAFF 020358Z AUTO 05003KT 10SM FEW090 16/16 A3029 RMK AO2 SLP164 T01570155
Conditions at: KAFF (USAF ACADEMY/COS, CO, US) observed 0358 UTC 02 July 2015
Temperature: 15.7°C (60°F)
Dewpoint: 15.5°C (60°F) [RH = 99%]
Pressure (altimeter): 30.29 inches Hg (1025.8 mb[Sea-level pressure: 1016.4 mb]
Winds: from the NE (50 degrees) at 3 MPH (3 knots; 1.6 m/s)
Visibility: 10 or more miles (16+ km)
Ceiling: at least 12,000 feet AGL
Clouds: few clouds at 9000 feet AGL
Weather: automated observation with no human augmentation;
there may or may not be significant weather present at this time

METAR text: KAFF 020258Z AUTO 36006KT 10SM CLR 16/16 A3026 RMK AO2 SLP154 60004 T01590155 55012
Conditions at: KAFF (USAF ACADEMY/COS, CO, US) observed 0258 UTC 02 July 2015
Temperature: 15.9°C (61°F)
Dewpoint: 15.5°C (60°F) [RH = 97%]
Pressure (altimeter): 30.26 inches Hg (1024.8 mb[Sea-level pressure: 1015.4 mb]
Winds: from the N (360 degrees) at 7 MPH (6 knots; 3.1 m/s)
Visibility: 10 or more miles (16+ km)
Ceiling: at least 12,000 feet AGL
Clouds: sky clear below 12,000 feet AGL
Weather: automated observation with no human augmentation;
there may or may not be significant weather present at this time

METAR text: KAFF 020158Z AUTO 27005KT 10SM CLR 18/16 A3026 RMK AO2 RAE03DZB03E05 SLP157 P0000 T01760164
Conditions at: KAFF (USAF ACADEMY/COS, CO, US) observed 0158 UTC 02 July 2015
Temperature: 17.6°C (64°F)
Dewpoint: 16.4°C (62°F) [RH = 93%]
Pressure (altimeter): 30.26 inches Hg (1024.8 mb[Sea-level pressure: 1015.7 mb]
Winds: from the W (270 degrees) at 6 MPH (5 knots; 2.6 m/s)
Visibility: 10 or more miles (16+ km)
Ceiling: at least 12,000 feet AGL
Clouds: sky clear below 12,000 feet AGL
Weather: automated observation with no human augmentation;
there may or may not be significant weather present at this time

METAR text: KAFF 020105Z AUTO 00000KT 10SM SCT008 17/16 A3026 RMK AO2 RAE03DZB03E05
Conditions at: KAFF (USAF ACADEMY/COS, CO, US) observed 0105 UTC 02 July 2015
Temperature: 17.0°C (63°F)
Dewpoint: 16.0°C (61°F) [RH = 94%]
Pressure (altimeter): 30.26 inches Hg (1024.8 mb)
Winds: calm
Visibility: 10 or more miles (16+ km)
Ceiling: at least 12,000 feet AGL
Clouds: scattered clouds at 800 feet AGL
Weather: automated observation with no human augmentation;
there may or may not be significant weather present at this time

METAR text: KAFF 020103Z AUTO 00000KT 10SM -RA BKN010 16/16 A3026 RMK AO2
Conditions at: KAFF (USAF ACADEMY/COS, CO, US) observed 0103 UTC 02 July 2015
Temperature: 16.0°C (61°F)
Dewpoint: 16.0°C (61°F) [RH = 100%]
Pressure (altimeter): 30.26 inches Hg (1024.8 mb)
Winds: calm
Visibility: 10 or more miles (16+ km)
Ceiling: 1000 feet AGL
Clouds: broken clouds at 1000 feet AGL
Weather: -RA  (light rain)

METAR text: KAFF 020058Z AUTO 25002KT 10SM -RA BKN009 17/16 A3026 RMK AO2 RAE14RAB26 CIG 009V011 BKN V OVC SLP172 P0004 T01670161
Conditions at: KAFF (USAF ACADEMY/COS, CO, US) observed 0058 UTC 02 July 2015
Temperature: 16.7°C (62°F)
Dewpoint: 16.1°C (61°F) [RH = 96%]
Pressure (altimeter): 30.26 inches Hg (1024.8 mb[Sea-level pressure: 1017.2 mb]
Winds: from the WSW (250 degrees) at 2 MPH (2 knots; 1.0 m/s)
Visibility: 10 or more miles (16+ km)
Ceiling: 900 feet AGL
Clouds: broken clouds at 900 feet AGL
Weather: -RA  (light rain)

METAR text: KAFF 020056Z AUTO VRB02KT 10SM -RA BKN009 17/16 A3026 RMK AO2 RAE14RAB26 CIG 009V011 BKN V OVC
Conditions at: KAFF (USAF ACADEMY/COS, CO, US) observed 0056 UTC 02 July 2015
Temperature: 17.0°C (63°F)
Dewpoint: 16.0°C (61°F) [RH = 94%]
Pressure (altimeter): 30.26 inches Hg (1024.8 mb)
Winds: variable direction winds at 2 MPH (2 knots; 1.0 m/s)
Visibility: 10 or more miles (16+ km)
Ceiling: 900 feet AGL
Clouds: broken clouds at 900 feet AGL
Weather: -RA  (light rain)

METAR text: KAFF 020046Z AUTO 14003KT 9SM -RA BKN012 17/16 A3025 RMK AO2 RAE14RAB26 CIG 012V017
Conditions at: KAFF (USAF ACADEMY/COS, CO, US) observed 0046 UTC 02 July 2015
Temperature: 17.0°C (63°F)
Dewpoint: 16.0°C (61°F) [RH = 94%]
Pressure (altimeter): 30.25 inches Hg (1024.5 mb)
Winds: from the SE (140 degrees) at 3 MPH (3 knots; 1.6 m/s)
Visibility: 9 miles (14 km)
Ceiling: 1200 feet AGL
Clouds: broken clouds at 1200 feet AGL
Weather: -RA  (light rain)

METAR text: KAFF 020036Z AUTO 15007KT 9SM -RA BKN017 17/14 A3026 RMK AO2 RAE14RAB26 PRESFR
Conditions at: KAFF (USAF ACADEMY/COS, CO, US) observed 0036 UTC 02 July 2015
Temperature: 17.0°C (63°F)
Dewpoint: 14.0°C (57°F) [RH = 82%]
Pressure (altimeter): 30.26 inches Hg (1024.8 mb)
Winds: from the SSE (150 degrees) at 8 MPH (7 knots; 3.6 m/s)
Visibility: 9 miles (14 km)
Ceiling: 1700 feet AGL
Clouds: broken clouds at 1700 feet AGL
Weather: -RA  (light rain)

METAR text: KAFF 020026Z AUTO VRB01KT 10SM -RA FEW003 17/14 A3028 RMK AO2 RAE14RAB26
Conditions at: KAFF (USAF ACADEMY/COS, CO, US) observed 0026 UTC 02 July 2015
Temperature: 17.0°C (63°F)
Dewpoint: 14.0°C (57°F) [RH = 82%]
Pressure (altimeter): 30.28 inches Hg (1025.5 mb)
Winds: variable direction winds at 1 MPH (1 knots; 0.5 m/s)
Visibility: 10 or more miles (16+ km)
Ceiling: at least 12,000 feet AGL
Clouds: few clouds at 300 feet AGL
Weather: -RA  (light rain)

METAR text: KAFF 020014Z AUTO 00000KT 10SM SCT003 16/15 A3028 RMK AO2 LTG DSNT SE RAE14
Conditions at: KAFF (USAF ACADEMY/COS, CO, US) observed 0014 UTC 02 July 2015
Temperature: 16.0°C (61°F)
Dewpoint: 15.0°C (59°F) [RH = 94%]
Pressure (altimeter): 30.28 inches Hg (1025.5 mb)
Winds: calm
Visibility: 10 or more miles (16+ km)
Ceiling: at least 12,000 feet AGL
Clouds: scattered clouds at 300 feet AGL
Weather: automated observation with no human augmentation;
there may or may not be significant weather present at this time

METAR text: KAFF 020008Z AUTO 19004KT 10SM -RA SCT003 16/15 A3029 RMK AO2 LTG DSNT SE
Conditions at: KAFF (USAF ACADEMY/COS, CO, US) observed 0008 UTC 02 July 2015
Temperature: 16.0°C (61°F)
Dewpoint: 15.0°C (59°F) [RH = 94%]
Pressure (altimeter): 30.29 inches Hg (1025.8 mb)
Winds: from the S (190 degrees) at 5 MPH (4 knots; 2.1 m/s)
Visibility: 10 or more miles (16+ km)
Ceiling: at least 12,000 feet AGL
Clouds: scattered clouds at 300 feet AGL
Weather: -RA  (light rain)

METAR text: KAFF 012358Z AUTO 22006KT 10SM -RA BKN004 17/16 A3030 RMK AO2 LTG DSNT E-SE TSE25 SLP187 P0003 60047 T01660158 10290 20165
Conditions at: KAFF (USAF ACADEMY/COS, CO, US) observed 2358 UTC 01 July 2015
Temperature: 16.6°C (62°F)
Dewpoint: 15.8°C (60°F) [RH = 95%]
Pressure (altimeter): 30.30 inches Hg (1026.2 mb[Sea-level pressure: 1018.7 mb]
Winds: from the SW (220 degrees) at 7 MPH (6 knots; 3.1 m/s)
Visibility: 10 or more miles (16+ km)
Ceiling: 400 feet AGL
Clouds: broken clouds at 400 feet AGL
Weather: -RA  (light rain)

METAR text: KAFF 012354Z AUTO 22006KT 10SM -RA BKN004 17/16 A3030 RMK AO2 LTG DSNT E TSE25 CIG 004V006
Conditions at: KAFF (USAF ACADEMY/COS, CO, US) observed 2354 UTC 01 July 2015
Temperature: 17.0°C (63°F)
Dewpoint: 16.0°C (61°F) [RH = 94%]
Pressure (altimeter): 30.30 inches Hg (1026.2 mb)
Winds: from the SW (220 degrees) at 7 MPH (6 knots; 3.1 m/s)
Visibility: 10 or more miles (16+ km)
Ceiling: 400 feet AGL
Clouds: broken clouds at 400 feet AGL
Weather: -RA  (light rain)

METAR text: KAFF 012349Z AUTO 20003KT 10SM -RA BKN005 17/15 A3030 RMK AO2 LTG DSNT NE-E TSE25 CIG 005V010
Conditions at: KAFF (USAF ACADEMY/COS, CO, US) observed 2349 UTC 01 July 2015
Temperature: 17.0°C (63°F)
Dewpoint: 15.0°C (59°F) [RH = 88%]
Pressure (altimeter): 30.30 inches Hg (1026.2 mb)
Winds: from the SSW (200 degrees) at 3 MPH (3 knots; 1.6 m/s)
Visibility: 10 or more miles (16+ km)
Ceiling: 500 feet AGL
Clouds: broken clouds at 500 feet AGL
Weather: -RA  (light rain)

METAR text: KAFF 012325Z 32003KT 10SM -RA FEW005 FEW018 SCT024 BKN070 17/15 A3030 RMK AO2A LTG DSNT NE AND SE TSE25
Conditions at: KAFF (USAF ACADEMY/COS, CO, US) observed 2325 UTC 01 July 2015
Temperature: 17.0°C (63°F)
Dewpoint: 15.0°C (59°F) [RH = 88%]
Pressure (altimeter): 30.30 inches Hg (1026.2 mb)
Winds: from the NW (320 degrees) at 3 MPH (3 knots; 1.6 m/s)
Visibility: 10 or more miles (16+ km)
Ceiling: 7000 feet AGL
Clouds: few clouds at 500 feet AGL
few clouds at 1800 feet AGL
scattered clouds at 2400 feet AGL
broken clouds at 7000 feet AGL
Weather: -RA  (light rain)

METAR text: KAFF 012258Z 33007KT 10SM -TSRA FEW005 FEW018 SCT024 BKN070 17/15 A3031 RMK AO2A PK WND 31029/01 LTG DSNT NE-W SLP195 P0012
Conditions at: KAFF (USAF ACADEMY/COS, CO, US) observed 2258 UTC 01 July 2015
Temperature: 17.0°C (63°F)
Dewpoint: 15.0°C (59°F) [RH = 88%]
Pressure (altimeter): 30.31 inches Hg (1026.5 mb[Sea-level pressure: 1019.5 mb]
Winds: from the NNW (330 degrees) at 8 MPH (7 knots; 3.6 m/s)
Visibility: 10 or more miles (16+ km)
Ceiling: 7000 feet AGL
Clouds: few clouds at 500 feet AGL
few clouds at 1800 feet AGL
scattered clouds at 2400 feet AGL
broken clouds at 7000 feet AGL
Weather: -TSRA  (light rain associated with thunderstorm(s))

METAR text: KAFF 012224Z 30006KT 8SM -TSRA FEW008 SCT024 BKN070 19/13 A3027 RMK AO2A LTG DSNT N-NE AND S-W CIG 008V012 PRESRR
Conditions at: KAFF (USAF ACADEMY/COS, CO, US) observed 2224 UTC 01 July 2015
Temperature: 19.0°C (66°F)
Dewpoint: 13.0°C (55°F) [RH = 68%]
Pressure (altimeter): 30.27 inches Hg (1025.1 mb)
Winds: from the WNW (300 degrees) at 7 MPH (6 knots; 3.1 m/s)
Visibility: 8 miles (13 km)
Ceiling: 7000 feet AGL
Clouds: few clouds at 800 feet AGL
scattered clouds at 2400 feet AGL
broken clouds at 7000 feet AGL
Weather: -TSRA  (light rain associated with thunderstorm(s))

METAR text: KAFF 012214Z 29011G23KT 10SM -TSRA SCT024 18/13 A3025 RMK AO2A LTG DSNT N AND E-W
Conditions at: KAFF (USAF ACADEMY/COS, CO, US) observed 2214 UTC 01 July 2015
Temperature: 18.0°C (64°F)
Dewpoint: 13.0°C (55°F) [RH = 73%]
Pressure (altimeter): 30.25 inches Hg (1024.5 mb)
Winds: from the WNW (290 degrees) at 13 MPH (11 knots; 5.7 m/sgusting to 26 MPH (23 knots; 12.0 m/s)
Visibility: 10 or more miles (16+ km)
Ceiling: at least 12,000 feet AGL
Clouds: scattered clouds at 2400 feet AGL
Weather: -TSRA  (light rain associated with thunderstorm(s))

METAR text: KAFF 012208Z 30011G24KT 10SM -TSRA BKN025 BKN075 18/13 A3026 RMK AO2A LTG DSNT N-W PRESRR
Conditions at: KAFF (USAF ACADEMY/COS, CO, US) observed 2208 UTC 01 July 2015
Temperature: 18.0°C (64°F)
Dewpoint: 13.0°C (55°F) [RH = 73%]
Pressure (altimeter): 30.26 inches Hg (1024.8 mb)
Winds: from the WNW (300 degrees) at 13 MPH (11 knots; 5.7 m/sgusting to 28 MPH (24 knots; 12.5 m/s)
Visibility: 10 or more miles (16+ km)
Ceiling: 2500 feet AGL
Clouds: broken clouds at 2500 feet AGL
broken clouds at 7500 feet AGL
Weather: -TSRA  (light rain associated with thunderstorm(s))

METAR text: KAFF 012203Z 29019G24KT 9SM -TSRA BKN023 OVC075 19/14 A3024 RMK AO2A LTG DSNT SE-NE CIG 023V028
Conditions at: KAFF (USAF ACADEMY/COS, CO, US) observed 2203 UTC 01 July 2015
Temperature: 19.0°C (66°F)
Dewpoint: 14.0°C (57°F) [RH = 73%]
Pressure (altimeter): 30.24 inches Hg (1024.1 mb)
Winds: from the WNW (290 degrees) at 22 MPH (19 knots; 9.9 m/sgusting to 28 MPH (24 knots; 12.5 m/s)
Visibility: 9 miles (14 km)
Ceiling: 2300 feet AGL
Clouds: broken clouds at 2300 feet AGL
overcast cloud deck at 7500 feet AGL
Weather: -TSRA  (light rain associated with thunderstorm(s))

METAR text: KAFF 012158Z 31018G21KT 7SM TSRA OVC025 20/13 A3024 RMK AO2A LTG DSNT SW-SE RAB28 TSB27 CIG 025V030 SLP160 P0032
Conditions at: KAFF (USAF ACADEMY/COS, CO, US) observed 2158 UTC 01 July 2015
Temperature: 20.0°C (68°F)
Dewpoint: 13.0°C (55°F) [RH = 64%]
Pressure (altimeter): 30.24 inches Hg (1024.1 mb[Sea-level pressure: 1016.0 mb]
Winds: from the NW (310 degrees) at 21 MPH (18 knots; 9.4 m/sgusting to 24 MPH (21 knots; 10.9 m/s)
Visibility: 7 miles (11 km)
Ceiling: 2500 feet AGL
Clouds: overcast cloud deck at 2500 feet AGL
Weather: TSRA  (rain associated with thunderstorm(s))

METAR text: KAFF 012155Z 32014KT 6SM TSRA OVC028 20/12 A3023 RMK AO2A LTG DSNT SW-SE RAB28 TSB27 OVC V BKN
Conditions at: KAFF (USAF ACADEMY/COS, CO, US) observed 2155 UTC 01 July 2015
Temperature: 20.0°C (68°F)
Dewpoint: 12.0°C (54°F) [RH = 60%]
Pressure (altimeter): 30.23 inches Hg (1023.8 mb)
Winds: from the NW (320 degrees) at 16 MPH (14 knots; 7.3 m/s)
Visibility: 6 miles (10 km)
Ceiling: 2800 feet AGL
Clouds: overcast cloud deck at 2800 feet AGL
Weather: TSRA  (rain associated with thunderstorm(s))

METAR text: KAFF 012150Z 33011KT 2 1/2SM TSRA BKN028 OVC075 20/14 A3022 RMK AO2A WSHFT 41 VIS 1 3/4V2 1/2 LTG DSNT N-SE AND SW-W RAB28 TSB27 CIG 022V030
Conditions at: KAFF (USAF ACADEMY/COS, CO, US) observed 2150 UTC 01 July 2015
Temperature: 20.0°C (68°F)
Dewpoint: 14.0°C (57°F) [RH = 68%]
Pressure (altimeter): 30.22 inches Hg (1023.5 mb)
Winds: from the NNW (330 degrees) at 13 MPH (11 knots; 5.7 m/s)
Visibility: 2.50 miles (4.02 km)
Ceiling: 2800 feet AGL
Clouds: broken clouds at 2800 feet AGL
overcast cloud deck at 7500 feet AGL
Weather: TSRA  (rain associated with thunderstorm(s))

METAR text: KAFF 012148Z 31012KT 2SM +TSRA BKN030 OVC075 21/13 A3022 RMK AO2A LTG DSNT N-SE AND W RAB28 TSB27
Conditions at: KAFF (USAF ACADEMY/COS, CO, US) observed 2148 UTC 01 July 2015
Temperature: 21.0°C (70°F)
Dewpoint: 13.0°C (55°F) [RH = 60%]
Pressure (altimeter): 30.22 inches Hg (1023.5 mb)
Winds: from the NW (310 degrees) at 14 MPH (12 knots; 6.2 m/s)
Visibility: 2.00 miles (3.22 km)
Ceiling: 3000 feet AGL
Clouds: broken clouds at 3000 feet AGL
overcast cloud deck at 7500 feet AGL
Weather: +TSRA  (heavy rain associated with thunderstorm(s))

METAR text: KAFF 012143Z 29013G16KT 1 3/4SM +TSRA BKN026 OVC075 21/13 A3022 RMK AO2A LTG DSNT NE-SE AND W RAB28 TSB27 CIG 020V075
Conditions at: KAFF (USAF ACADEMY/COS, CO, US) observed 2143 UTC 01 July 2015
Temperature: 21.0°C (70°F)
Dewpoint: 13.0°C (55°F) [RH = 60%]
Pressure (altimeter): 30.22 inches Hg (1023.5 mb)
Winds: from the WNW (290 degrees) at 15 MPH (13 knots; 6.8 m/sgusting to 18 MPH (16 knots; 8.3 m/s)
Visibility: 1.75 miles (2.82 km)
Ceiling: 2600 feet AGL
Clouds: broken clouds at 2600 feet AGL
overcast cloud deck at 7500 feet AGL
Weather: +TSRA  (heavy rain associated with thunderstorm(s))

METAR text: KAFF 012138Z 27012G16KT 1 3/4SM +TSRA SCT020 BKN075 22/12 A3022 RMK AO2A VIS 1 3/4V6 LTG DSNT NE AND SE AND SW-NW RAB28 TSB27
Conditions at: KAFF (USAF ACADEMY/COS, CO, US) observed 2138 UTC 01 July 2015
Temperature: 22.0°C (72°F)
Dewpoint: 12.0°C (54°F) [RH = 53%]
Pressure (altimeter): 30.22 inches Hg (1023.5 mb)
Winds: from the W (270 degrees) at 14 MPH (12 knots; 6.2 m/sgusting to 18 MPH (16 knots; 8.3 m/s)
Visibility: 1.75 miles (2.82 km)
Ceiling: 7500 feet AGL
Clouds: scattered clouds at 2000 feet AGL
broken clouds at 7500 feet AGL
Weather: +TSRA  (heavy rain associated with thunderstorm(s))

METAR text: KAFF 012133Z 24008KT 2SM +TSRA SCT022 SCT041 BKN075 24/14 A3022 RMK AO2A VIS 2V10 LTG DSNT SE AND SW-NW RAB28 TSB27
Conditions at: KAFF (USAF ACADEMY/COS, CO, US) observed 2133 UTC 01 July 2015
Temperature: 24.0°C (75°F)
Dewpoint: 14.0°C (57°F) [RH = 54%]
Pressure (altimeter): 30.22 inches Hg (1023.5 mb)
Winds: from the WSW (240 degrees) at 9 MPH (8 knots; 4.2 m/s)
Visibility: 2.00 miles (3.22 km)
Ceiling: 7500 feet AGL
Clouds: scattered clouds at 2200 feet AGL
scattered clouds at 4100 feet AGL
broken clouds at 7500 feet AGL
Weather: +TSRA  (heavy rain associated with thunderstorm(s))

METAR text: KAFF 012128Z 08008KT 6SM -TSRA FEW041 BKN075 26/10 A3022 RMK AO2A LTG DSNT SW-N RAB28 TSB27
Conditions at: KAFF (USAF ACADEMY/COS, CO, US) observed 2128 UTC 01 July 2015
Temperature: 26.0°C (79°F)
Dewpoint: 10.0°C (50°F) [RH = 37%]
Pressure (altimeter): 30.22 inches Hg (1023.5 mb)
Winds: from the E (80 degrees) at 9 MPH (8 knots; 4.2 m/s)
Visibility: 6 miles (10 km)
Ceiling: 7500 feet AGL
Clouds: few clouds at 4100 feet AGL
broken clouds at 7500 feet AGL
Weather: -TSRA  (light rain associated with thunderstorm(s))

METAR text: KAFF 012127Z 07009KT 8SM TS FEW041 BKN075 26/09 A3021 RMK AO2A LTG DSNT SW-N TSB27
Conditions at: KAFF (USAF ACADEMY/COS, CO, US) observed 2127 UTC 01 July 2015
Temperature: 26.0°C (79°F)
Dewpoint: 9.0°C (48°F) [RH = 34%]
Pressure (altimeter): 30.21 inches Hg (1023.1 mb)
Winds: from the ENE (70 degrees) at 10 MPH (9 knots; 4.7 m/s)
Visibility: 8 miles (13 km)
Ceiling: 7500 feet AGL
Clouds: few clouds at 4100 feet AGL
broken clouds at 7500 feet AGL
Weather: TS  (thunderstorm)

METAR text: KAFF 012058Z 10008KT 10SM FEW070 SCT110 SCT140 BKN200 27/09 A3021 RMK AO2A LTG DSNT SW-NW SLP133 T02680086 57010
Conditions at: KAFF (USAF ACADEMY/COS, CO, US) observed 2058 UTC 01 July 2015
Temperature: 26.8°C (80°F)
Dewpoint: 8.6°C (47°F) [RH = 32%]
Pressure (altimeter): 30.21 inches Hg (1023.1 mb[Sea-level pressure: 1013.3 mb]
Winds: from the E (100 degrees) at 9 MPH (8 knots; 4.2 m/s)
Visibility: 10 or more miles (16+ km)
Ceiling: 20000 feet AGL
Clouds: few clouds at 7000 feet AGL
scattered clouds at 11000 feet AGL
scattered clouds at 14000 feet AGL
broken clouds at 20000 feet AGL
Weather: no significant weather observed at this time

METAR text: KAFF 011958Z 11011KT 10SM FEW070 SCT170 28/11 A3021 RMK AO2A SLP130 T02760105
Conditions at: KAFF (USAF ACADEMY/COS, CO, US) observed 1958 UTC 01 July 2015
Temperature: 27.6°C (82°F)
Dewpoint: 10.5°C (51°F) [RH = 34%]
Pressure (altimeter): 30.21 inches Hg (1023.1 mb[Sea-level pressure: 1013.0 mb]
Winds: from the ESE (110 degrees) at 13 MPH (11 knots; 5.7 m/s)
Visibility: 10 or more miles (16+ km)
Ceiling: at least 12,000 feet AGL
Clouds: few clouds at 7000 feet AGL
scattered clouds at 17000 feet AGL
Weather: no significant weather observed at this time

METAR text: KAFF 011858Z VRB05KT 10SM FEW140 28/10 A3024 RMK AO2A SLP137 T02840096
Conditions at: KAFF (USAF ACADEMY/COS, CO, US) observed 1858 UTC 01 July 2015
Temperature: 28.4°C (83°F)
Dewpoint: 9.6°C (49°F) [RH = 31%]
Pressure (altimeter): 30.24 inches Hg (1024.1 mb[Sea-level pressure: 1013.7 mb]
Winds: variable direction winds at 6 MPH (5 knots; 2.6 m/s)
Visibility: 10 or more miles (16+ km)
Ceiling: at least 12,000 feet AGL
Clouds: few clouds at 14000 feet AGL
Weather: no significant weather observed at this time

METAR text: KAFF 011758Z 04009KT 10SM FEW200 28/09 A3024 RMK AO2A SLP134 T02750091 10279 20171 51004
Conditions at: KAFF (USAF ACADEMY/COS, CO, US) observed 1758 UTC 01 July 2015
Temperature: 27.5°C (82°F)
Dewpoint: 9.1°C (48°F) [RH = 31%]
Pressure (altimeter): 30.24 inches Hg (1024.1 mb[Sea-level pressure: 1013.4 mb]
Winds: from the NE (40 degrees) at 10 MPH (9 knots; 4.7 m/s)
Visibility: 10 or more miles (16+ km)
Ceiling: at least 12,000 feet AGL
Clouds: few clouds at 20000 feet AGL
Weather: no significant weather observed at this time

METAR text: KAFF 011658Z AUTO 34011KT 320V020 10SM CLR 27/08 A3024 RMK AO2 SLP134 T02660077
Conditions at: KAFF (USAF ACADEMY/COS, CO, US) observed 1658 UTC 01 July 2015
Temperature: 26.6°C (80°F)
Dewpoint: 7.7°C (46°F) [RH = 30%]
Pressure (altimeter): 30.24 inches Hg (1024.1 mb[Sea-level pressure: 1013.4 mb]
Winds: from the NNW (340 degrees) at 13 MPH (11 knots; 5.7 m/s)
Visibility: 10 or more miles (16+ km)
Ceiling: at least 12,000 feet AGL
Clouds: sky clear below 12,000 feet AGL
Weather: automated observation with no human augmentation;
there may or may not be significant weather present at this time

METAR text: KAFF 011558Z AUTO 01017KT 10SM CLR 26/08 A3023 RMK AO2 SLPNO T02580079
Conditions at: KAFF (USAF ACADEMY/COS, CO, US) observed 1558 UTC 01 July 2015
Temperature: 25.8°C (78°F)
Dewpoint: 7.9°C (46°F) [RH = 32%]
Pressure (altimeter): 30.23 inches Hg (1023.8 mb)
Winds: from the N (10 degrees) at 20 MPH (17 knots; 8.8 m/s)
Visibility: 10 or more miles (16+ km)
Ceiling: at least 12,000 feet AGL
Clouds: sky clear below 12,000 feet AGL
Weather: automated observation with no human augmentation;
there may or may not be significant weather present at this time

METAR text: KAFF 011458Z AUTO 36014KT 10SM CLR 25/07 A3023 RMK AO2 SLPNO T02530072 52008
Conditions at: KAFF (USAF ACADEMY/COS, CO, US) observed 1458 UTC 01 July 2015
Temperature: 25.3°C (78°F)
Dewpoint: 7.2°C (45°F) [RH = 31%]
Pressure (altimeter): 30.23 inches Hg (1023.8 mb)
Winds: from the N (360 degrees) at 16 MPH (14 knots; 7.3 m/s)
Visibility: 10 or more miles (16+ km)
Ceiling: at least 12,000 feet AGL
Clouds: sky clear below 12,000 feet AGL
Weather: automated observation with no human augmentation;
there may or may not be significant weather present at this time

METAR text: KAFF 011358Z AUTO 01010KT 10SM CLR 21/11 A3022 RMK AO2 SLP130 T02140107
Conditions at: KAFF (USAF ACADEMY/COS, CO, US) observed 1358 UTC 01 July 2015
Temperature: 21.4°C (71°F)
Dewpoint: 10.7°C (51°F) [RH = 50%]
Pressure (altimeter): 30.22 inches Hg (1023.5 mb[Sea-level pressure: 1013.0 mb]
Winds: from the N (10 degrees) at 12 MPH (10 knots; 5.2 m/s)
Visibility: 10 or more miles (16+ km)
Ceiling: at least 12,000 feet AGL
Clouds: sky clear below 12,000 feet AGL
Weather: automated observation with no human augmentation;
there may or may not be significant weather present at this time

METAR text: KAFF 011258Z AUTO 01007KT 10SM CLR 17/09 A3021 RMK AO2 SLP133 T01710092
Conditions at: KAFF (USAF ACADEMY/COS, CO, US) observed 1258 UTC 01 July 2015
Temperature: 17.1°C (63°F)
Dewpoint: 9.2°C (49°F) [RH = 60%]
Pressure (altimeter): 30.21 inches Hg (1023.1 mb[Sea-level pressure: 1013.3 mb]
Winds: from the N (10 degrees) at 8 MPH (7 knots; 3.6 m/s)
Visibility: 10 or more miles (16+ km)
Ceiling: at least 12,000 feet AGL
Clouds: sky clear below 12,000 feet AGL
Weather: automated observation with no human augmentation;
there may or may not be significant weather present at this time

METAR text: KAFF 011158Z AUTO 32005KT 10SM SCT130 17/08 A3020 RMK AO2 SLP127 60000 T01680081 10221 20148 53001
Conditions at: KAFF (USAF ACADEMY/COS, CO, US) observed 1158 UTC 01 July 2015
Temperature: 16.8°C (62°F)
Dewpoint: 8.1°C (47°F) [RH = 56%]
Pressure (altimeter): 30.20 inches Hg (1022.8 mb[Sea-level pressure: 1012.7 mb]
Winds: from the NW (320 degrees) at 6 MPH (5 knots; 2.6 m/s)
Visibility: 10 or more miles (16+ km)
Ceiling: at least 12,000 feet AGL
Clouds: scattered clouds at 13000 feet AGL
Weather: automated observation with no human augmentation;
there may or may not be significant weather present at this time